createdAt,value
2022-10-19T00:00:17.425Z,82.97
2022-10-19T00:01:17.423Z,83.37
2022-10-19T00:02:17.547Z,82.97
2022-10-19T00:03:20.748Z,82.97
2022-10-19T00:04:17.391Z,83.17
2022-10-19T00:05:17.381Z,83.27
2022-10-19T00:06:17.376Z,82.66
2022-10-19T00:07:17.347Z,82.87
2022-10-19T00:08:17.343Z,82.76
2022-10-19T00:09:17.328Z,83.58
2022-10-19T00:10:17.321Z,83.07
2022-10-19T00:11:17.436Z,82.87
2022-10-19T00:12:17.302Z,82.76
2022-10-19T00:13:17.286Z,82.66
2022-10-19T00:14:17.277Z,82.76
2022-10-19T00:15:17.269Z,82.46
2022-10-19T00:16:17.315Z,82.76
2022-10-19T00:17:17.244Z,82.46
2022-10-19T00:18:17.236Z,82.80
2022-10-19T00:19:17.229Z,82.76
2022-10-19T00:20:17.214Z,82.76
2022-10-19T00:21:17.220Z,82.46
2022-10-19T00:22:17.195Z,82.26
2022-10-19T00:23:17.219Z,82.26
2022-10-19T00:24:17.174Z,82.29
2022-10-19T00:25:17.204Z,82.60
2022-10-19T00:26:17.166Z,82.40
2022-10-19T00:27:17.143Z,82.70
2022-10-19T00:28:17.131Z,82.40
2022-10-19T00:29:17.136Z,82.70
2022-10-19T00:30:17.107Z,82.80
2022-10-19T00:31:17.118Z,82.40
2022-10-19T00:32:17.089Z,82.50
2022-10-19T00:33:17.081Z,82.19
2022-10-19T00:34:17.066Z,82.29
2022-10-19T00:35:17.062Z,81.99
2022-10-19T00:36:17.059Z,82.50
2022-10-19T00:37:17.038Z,82.40
2022-10-19T00:38:17.028Z,82.29
2022-10-19T00:39:17.018Z,82.60
2022-10-19T00:40:17.004Z,81.79
2022-10-19T00:41:17.017Z,81.79
2022-10-19T00:42:16.985Z,81.58
2022-10-19T00:43:16.976Z,81.79
2022-10-19T00:44:16.960Z,82.09
2022-10-19T00:45:16.959Z,81.58
2022-10-19T00:46:16.962Z,80.56
2022-10-19T00:47:16.931Z,80.77
2022-10-19T00:48:16.920Z,81.27
2022-10-19T00:49:16.914Z,80.97
2022-10-19T00:50:16.912Z,81.17
2022-10-19T00:51:16.904Z,81.27
2022-10-19T00:52:16.877Z,81.27
2022-10-19T00:53:16.873Z,81.17
2022-10-19T00:54:16.856Z,81.04
2022-10-19T00:55:16.853Z,80.93
2022-10-19T00:56:16.857Z,80.83
2022-10-19T00:57:16.830Z,80.93
2022-10-19T00:58:16.815Z,80.66
2022-10-19T00:59:16.808Z,80.87
2022-10-19T01:00:16.795Z,80.77
2022-10-19T01:01:16.843Z,80.26
2022-10-19T01:02:16.798Z,80.46
2022-10-19T01:03:16.770Z,80.36
2022-10-19T01:04:16.751Z,80.46
2022-10-19T01:05:16.747Z,79.95
2022-10-19T01:06:16.757Z,79.44
2022-10-19T01:07:16.733Z,79.75
2022-10-19T01:08:16.709Z,79.95
2022-10-19T01:09:16.706Z,79.75
2022-10-19T01:10:16.692Z,79.95
2022-10-19T01:11:16.704Z,80.16
2022-10-19T01:12:16.668Z,79.95
2022-10-19T01:13:16.663Z,79.24
2022-10-19T01:14:16.651Z,79.34
2022-10-19T01:15:16.645Z,79.03
2022-10-19T01:16:16.644Z,79.85
2022-10-19T01:17:16.638Z,79.95
2022-10-19T01:18:16.612Z,80.56
2022-10-19T01:19:16.601Z,79.85
2022-10-19T01:20:16.599Z,79.75
2022-10-19T01:21:16.591Z,79.75
2022-10-19T01:22:16.566Z,80.05
2022-10-19T01:23:16.557Z,79.85
2022-10-19T01:24:16.547Z,79.85
2022-10-19T01:25:16.540Z,80.56
2022-10-19T01:26:16.537Z,80.16
2022-10-19T01:27:16.518Z,79.54
2022-10-19T01:28:16.504Z,79.54
2022-10-19T01:29:16.494Z,79.24
2022-10-19T01:30:16.483Z,78.93
2022-10-19T01:31:16.490Z,79.14
2022-10-19T01:32:16.471Z,78.83
2022-10-19T01:33:16.454Z,78.73
2022-10-19T01:34:16.461Z,78.22
2022-10-19T01:35:16.435Z,78.32
2022-10-19T01:36:16.436Z,78.22
2022-10-19T01:37:16.416Z,78.02
2022-10-19T01:38:16.409Z,77.81
2022-10-19T01:39:16.398Z,77.61
2022-10-19T01:40:16.376Z,77.71
2022-10-19T01:41:16.386Z,78.02
2022-10-19T01:42:16.353Z,77.81
2022-10-19T01:43:16.351Z,77.71
2022-10-19T01:44:16.336Z,78.02
2022-10-19T01:45:16.366Z,78.02
2022-10-19T01:46:16.327Z,78.12
2022-10-19T01:47:16.308Z,77.40
2022-10-19T01:48:16.297Z,77.61
2022-10-19T01:49:16.297Z,77.81
2022-10-19T01:50:16.281Z,77.30
2022-10-19T01:51:16.283Z,78.02
2022-10-19T01:52:16.254Z,77.91
2022-10-19T01:53:16.248Z,77.51
2022-10-19T01:54:16.229Z,77.61
2022-10-19T01:55:16.228Z,77.40
2022-10-19T01:56:16.236Z,77.40
2022-10-19T01:57:16.204Z,77.51
2022-10-19T01:58:16.190Z,77.61
2022-10-19T01:59:16.189Z,77.61
2022-10-19T02:00:16.166Z,76.49
2022-10-19T02:01:16.189Z,77.00
2022-10-19T02:02:16.170Z,77.40
2022-10-19T02:03:16.149Z,77.81
2022-10-19T02:04:16.124Z,77.81
2022-10-19T02:05:16.124Z,77.81
2022-10-19T02:06:16.116Z,77.61
2022-10-19T02:07:16.101Z,77.20
2022-10-19T02:08:16.083Z,77.81
2022-10-19T02:09:16.090Z,77.61
2022-10-19T02:10:16.068Z,77.81
2022-10-19T02:11:16.071Z,78.02
2022-10-19T02:12:16.048Z,78.22
2022-10-19T02:13:16.035Z,78.63
2022-10-19T02:14:16.022Z,78.83
2022-10-19T02:15:16.016Z,79.03
2022-10-19T02:16:16.018Z,79.14
2022-10-19T02:17:15.994Z,79.24
2022-10-19T02:18:15.981Z,79.34
2022-10-19T02:19:16.033Z,79.54
2022-10-19T02:20:15.962Z,79.64
2022-10-19T02:21:15.967Z,79.64
2022-10-19T02:22:15.954Z,79.85
2022-10-19T02:23:15.939Z,79.95
2022-10-19T02:24:15.920Z,80.16
2022-10-19T02:25:15.929Z,80.16
2022-10-19T02:26:15.908Z,80.46
2022-10-19T02:27:15.890Z,80.46
2022-10-19T02:28:15.984Z,80.56
2022-10-19T02:29:15.873Z,80.56
2022-10-19T02:30:15.860Z,80.56
2022-10-19T02:31:15.860Z,80.97
2022-10-19T02:32:15.833Z,80.46
2022-10-19T02:33:15.834Z,80.77
2022-10-19T02:34:15.811Z,80.80
2022-10-19T02:35:15.807Z,80.87
2022-10-19T02:36:15.805Z,81.07
2022-10-19T02:37:15.883Z,80.97
2022-10-19T02:38:15.770Z,81.27
2022-10-19T02:39:15.777Z,81.27
2022-10-19T02:40:15.749Z,81.17
2022-10-19T02:41:15.756Z,81.31
2022-10-19T02:42:15.739Z,81.21
2022-10-19T02:43:15.726Z,81.31
2022-10-19T02:44:15.717Z,81.72
2022-10-19T02:45:15.713Z,81.62
2022-10-19T02:46:15.701Z,81.41
2022-10-19T02:47:15.680Z,81.41
2022-10-19T02:48:15.667Z,81.41
2022-10-19T02:49:15.667Z,81.52
2022-10-19T02:50:15.648Z,81.21
2022-10-19T02:51:15.655Z,81.31
2022-10-19T02:52:15.638Z,81.41
2022-10-19T02:53:15.620Z,81.38
2022-10-19T02:54:15.604Z,81.48
2022-10-19T02:55:15.600Z,81.27
2022-10-19T02:56:15.595Z,81.07
2022-10-19T02:57:15.580Z,81.17
2022-10-19T02:58:15.574Z,81.11
2022-10-19T02:59:15.559Z,81.21
2022-10-19T03:00:15.542Z,81.41
2022-10-19T03:01:15.599Z,81.62
2022-10-19T03:02:15.521Z,81.62
2022-10-19T03:03:15.518Z,81.41
2022-10-19T03:04:15.502Z,81.21
2022-10-19T03:05:15.494Z,81.62
2022-10-19T03:06:15.495Z,81.31
2022-10-19T03:07:15.474Z,81.41
2022-10-19T03:08:15.458Z,81.21
2022-10-19T03:09:15.456Z,81.21
2022-10-19T03:10:15.438Z,81.31
2022-10-19T03:11:15.468Z,81.52
2022-10-19T03:12:15.417Z,81.41
2022-10-19T03:13:15.417Z,81.41
2022-10-19T03:14:15.400Z,81.41
2022-10-19T03:15:15.398Z,81.31
2022-10-19T03:16:15.389Z,81.52
2022-10-19T03:17:15.383Z,81.21
2022-10-19T03:18:15.361Z,81.11
2022-10-19T03:19:15.361Z,81.41
2022-10-19T03:20:15.336Z,81.11
2022-10-19T03:21:15.343Z,81.52
2022-10-19T03:22:15.318Z,81.82
2022-10-19T03:23:15.306Z,82.03
2022-10-19T03:24:15.313Z,82.03
2022-10-19T03:25:15.286Z,82.03
2022-10-19T03:26:15.306Z,81.72
2022-10-19T03:27:22.331Z,81.72
2022-10-19T03:28:17.865Z,81.82
2022-10-19T03:29:15.247Z,81.93
2022-10-19T03:30:15.234Z,82.13
2022-10-19T03:31:15.234Z,82.17
2022-10-19T03:32:15.207Z,82.27
2022-10-19T03:33:15.279Z,82.17
2022-10-19T03:34:15.220Z,82.47
2022-10-19T03:35:15.185Z,82.68
2022-10-19T03:36:15.185Z,82.57
2022-10-19T03:37:15.176Z,82.57
2022-10-19T03:38:15.151Z,82.88
2022-10-19T03:39:15.147Z,82.78
2022-10-19T03:40:15.125Z,82.88
2022-10-19T03:41:15.142Z,82.57
2022-10-19T03:42:15.105Z,82.57
2022-10-19T03:43:15.103Z,82.57
2022-10-19T03:44:15.082Z,82.57
2022-10-19T03:45:15.087Z,82.78
2022-10-19T03:46:15.072Z,82.78
2022-10-19T03:47:15.076Z,82.98
2022-10-19T03:48:15.042Z,83.09
2022-10-19T03:49:15.044Z,82.88
2022-10-19T03:50:15.047Z,82.98
2022-10-19T03:51:15.045Z,82.68
2022-10-19T03:52:15.005Z,82.57
2022-10-19T03:53:15.004Z,82.47
2022-10-19T03:54:15.009Z,82.57
2022-10-19T03:55:14.993Z,82.37
2022-10-19T03:56:14.971Z,82.07
2022-10-19T03:57:15.002Z,81.56
2022-10-19T03:58:14.936Z,81.66
2022-10-19T03:59:14.944Z,81.56
2022-10-19T04:00:14.925Z,81.25
2022-10-19T04:01:14.986Z,81.25
2022-10-19T04:02:14.898Z,81.45
2022-10-19T04:03:14.888Z,81.56
2022-10-19T04:04:14.887Z,81.45
2022-10-19T04:05:14.866Z,81.25
2022-10-19T04:06:17.064Z,81.25
2022-10-19T04:07:14.859Z,80.94
2022-10-19T04:08:14.838Z,81.35
2022-10-19T04:09:14.829Z,81.04
2022-10-19T04:10:14.825Z,81.15
2022-10-19T04:11:14.825Z,81.15
2022-10-19T04:12:14.796Z,81.15
2022-10-19T04:13:14.790Z,81.04
2022-10-19T04:14:22.774Z,81.04
2022-10-19T04:15:14.766Z,81.15
2022-10-19T04:16:14.769Z,81.35
2022-10-19T04:17:14.763Z,81.45
2022-10-19T04:18:14.727Z,81.45
2022-10-19T04:19:14.724Z,81.45
2022-10-19T04:20:14.705Z,81.45
2022-10-19T04:21:15.149Z,81.66
2022-10-19T04:22:14.686Z,81.76
2022-10-19T04:23:14.691Z,82.07
2022-10-19T04:24:14.675Z,82.17
2022-10-19T04:25:14.662Z,81.96
2022-10-19T04:26:14.669Z,81.45
2022-10-19T04:27:14.659Z,81.76
2022-10-19T04:28:14.622Z,81.86
2022-10-19T04:29:14.687Z,81.66
2022-10-19T04:30:14.616Z,81.86
2022-10-19T04:31:14.607Z,81.96
2022-10-19T04:32:14.589Z,81.86
2022-10-19T04:33:14.608Z,82.07
2022-10-19T04:34:14.566Z,82.27
2022-10-19T04:35:14.555Z,82.07
2022-10-19T04:36:14.567Z,81.86
2022-10-19T04:37:14.543Z,81.35
2022-10-19T04:38:14.582Z,81.56
2022-10-19T04:39:14.522Z,81.76
2022-10-19T04:40:15.085Z,81.76
2022-10-19T04:41:14.500Z,81.76
2022-10-19T04:42:14.489Z,81.86
2022-10-19T04:43:14.481Z,81.96
2022-10-19T04:44:14.527Z,81.86
2022-10-19T04:45:14.451Z,81.86
2022-10-19T04:46:14.495Z,81.96
2022-10-19T04:47:14.429Z,81.86
2022-10-19T04:48:15.212Z,81.76
2022-10-19T04:49:17.794Z,81.56
2022-10-19T04:50:14.433Z,81.66
2022-10-19T04:51:14.411Z,81.56
2022-10-19T04:52:14.382Z,81.35
2022-10-19T04:53:14.434Z,81.25
2022-10-19T04:54:14.369Z,81.35
2022-10-19T04:55:14.340Z,81.66
2022-10-19T04:56:14.399Z,81.45
2022-10-19T04:57:14.324Z,81.45
2022-10-19T04:58:14.316Z,81.25
2022-10-19T04:59:14.312Z,81.56
2022-10-19T05:00:14.301Z,81.66
2022-10-19T05:01:14.398Z,81.76
2022-10-19T05:02:14.277Z,81.76
2022-10-19T05:03:14.266Z,81.76
2022-10-19T05:04:14.254Z,81.86
2022-10-19T05:05:14.235Z,82.07
2022-10-19T05:06:14.247Z,81.76
2022-10-19T05:07:14.215Z,81.96
2022-10-19T05:08:14.215Z,81.96
2022-10-19T05:09:14.153Z,81.96
2022-10-19T05:10:14.141Z,81.96
2022-10-19T05:11:14.192Z,81.96
2022-10-19T05:12:14.172Z,82.07
2022-10-19T05:13:14.177Z,82.17
2022-10-19T05:14:14.244Z,82.17
2022-10-19T05:15:14.139Z,82.27
2022-10-19T05:16:14.180Z,82.27
2022-10-19T05:17:14.071Z,82.17
2022-10-19T05:18:14.055Z,81.66
2022-10-19T05:19:14.056Z,81.56
2022-10-19T05:20:14.028Z,81.86
2022-10-19T05:21:14.040Z,82.17
2022-10-19T05:22:14.013Z,81.86
2022-10-19T05:23:13.998Z,82.37
2022-10-19T05:24:13.997Z,82.37
2022-10-19T05:25:13.998Z,82.88
2022-10-19T05:26:13.977Z,83.43
2022-10-19T05:27:13.956Z,83.73
2022-10-19T05:28:13.967Z,83.73
2022-10-19T05:29:13.936Z,83.53
2022-10-19T05:30:13.934Z,83.53
2022-10-19T05:31:13.920Z,83.63
2022-10-19T05:32:13.914Z,83.63
2022-10-19T05:33:13.893Z,83.84
2022-10-19T05:34:13.897Z,84.25
2022-10-19T05:35:16.378Z,84.34
2022-10-19T05:36:13.880Z,84.55
2022-10-19T05:37:13.857Z,84.55
2022-10-19T05:38:13.841Z,84.34
2022-10-19T05:39:13.847Z,84.55
2022-10-19T05:40:13.829Z,84.86
2022-10-19T05:41:13.836Z,84.86
2022-10-19T05:42:13.804Z,85.00
2022-10-19T05:43:13.791Z,85.10
2022-10-19T05:44:13.792Z,85.30
2022-10-19T05:45:13.780Z,85.51
2022-10-19T05:46:13.772Z,85.51
2022-10-19T05:47:13.749Z,85.71
2022-10-19T05:48:13.761Z,85.51
2022-10-19T05:49:13.734Z,85.51
2022-10-19T05:50:13.717Z,85.61
2022-10-19T05:51:13.720Z,85.82
2022-10-19T05:52:13.700Z,86.73
2022-10-19T05:53:13.687Z,87.85
2022-10-19T05:54:13.677Z,88.06
2022-10-19T05:55:13.687Z,88.57
2022-10-19T05:56:13.665Z,86.59
2022-10-19T05:57:13.722Z,86.33
2022-10-19T05:58:13.631Z,87.51
2022-10-19T05:59:13.621Z,86.18
2022-10-19T06:00:13.635Z,86.08
2022-10-19T06:01:13.623Z,87.10
2022-10-19T06:02:13.649Z,87.61
2022-10-19T06:03:13.592Z,86.49
2022-10-19T06:04:13.618Z,85.88
2022-10-19T06:05:13.585Z,85.77
2022-10-19T06:06:13.557Z,86.65
2022-10-19T06:07:13.572Z,85.63
2022-10-19T06:08:13.530Z,86.24
2022-10-19T06:09:13.539Z,85.90
2022-10-19T06:10:13.519Z,85.19
2022-10-19T06:11:13.538Z,84.88
2022-10-19T06:12:15.758Z,83.86
2022-10-19T06:13:13.482Z,83.35
2022-10-19T06:14:13.465Z,84.58
2022-10-19T06:15:13.458Z,84.17
2022-10-19T06:16:13.500Z,84.88
2022-10-19T06:17:13.467Z,84.58
2022-10-19T06:18:13.428Z,84.27
2022-10-19T06:19:13.418Z,82.94
2022-10-19T06:20:13.400Z,83.96
2022-10-19T06:21:13.416Z,83.45
2022-10-19T06:22:13.386Z,83.35
2022-10-19T06:23:13.370Z,82.94
2022-10-19T06:24:13.391Z,83.15
2022-10-19T06:25:16.635Z,83.15
2022-10-19T06:26:13.370Z,83.25
2022-10-19T06:27:13.505Z,83.25
2022-10-19T06:28:13.323Z,83.35
2022-10-19T06:29:13.314Z,83.59
2022-10-19T06:30:13.386Z,83.65
2022-10-19T06:31:13.294Z,83.56
2022-10-19T06:32:13.282Z,83.65
2022-10-19T06:33:13.269Z,83.56
2022-10-19T06:34:13.342Z,83.56
2022-10-19T06:35:13.256Z,83.45
2022-10-19T06:36:13.238Z,83.25
2022-10-19T06:37:13.227Z,83.35
2022-10-19T06:38:13.220Z,83.35
2022-10-19T06:39:13.206Z,83.45
2022-10-19T06:40:13.250Z,83.35
2022-10-19T06:41:13.199Z,83.25
2022-10-19T06:42:13.211Z,83.04
2022-10-19T06:43:13.168Z,83.35
2022-10-19T06:44:13.160Z,83.25
2022-10-19T06:45:13.153Z,83.25
2022-10-19T06:46:13.133Z,83.04
2022-10-19T06:47:13.119Z,83.04
2022-10-19T06:48:13.119Z,83.35
2022-10-19T06:49:13.106Z,83.35
2022-10-19T06:50:13.103Z,82.94
2022-10-19T06:51:13.081Z,82.74
2022-10-19T06:52:13.070Z,82.94
2022-10-19T06:53:13.055Z,83.04
2022-10-19T06:54:13.149Z,83.15
2022-10-19T06:55:13.051Z,83.25
2022-10-19T06:56:13.027Z,83.15
2022-10-19T06:57:13.024Z,83.15
2022-10-19T06:58:13.040Z,83.35
2022-10-19T06:59:13.518Z,83.35
2022-10-19T07:00:13.009Z,83.15
2022-10-19T07:01:13.068Z,83.15
2022-10-19T07:02:12.964Z,83.25
2022-10-19T07:03:12.957Z,83.15
2022-10-19T07:04:12.946Z,83.25
2022-10-19T07:05:12.943Z,83.15
2022-10-19T07:06:12.930Z,83.35
2022-10-19T07:07:12.912Z,83.35
2022-10-19T07:08:12.950Z,83.25
2022-10-19T07:09:12.891Z,83.25
2022-10-19T07:10:12.952Z,82.94
2022-10-19T07:11:12.870Z,82.90
2022-10-19T07:12:12.865Z,82.50
2022-10-19T07:13:12.851Z,81.85
2022-10-19T07:14:12.841Z,81.24
2022-10-19T07:15:12.849Z,80.79
2022-10-19T07:16:16.105Z,80.35
2022-10-19T07:17:12.815Z,80.04
2022-10-19T07:18:12.805Z,79.88
2022-10-19T07:19:12.812Z,80.08
2022-10-19T07:20:12.779Z,80.29
2022-10-19T07:21:12.761Z,80.04
2022-10-19T07:22:18.603Z,79.63
2022-10-19T07:23:12.747Z,79.74
2022-10-19T07:24:12.742Z,80.04
2022-10-19T07:25:12.721Z,79.84
2022-10-19T07:26:12.735Z,79.39
2022-10-19T07:27:12.698Z,78.34
2022-10-19T07:28:12.694Z,78.14
2022-10-19T07:29:12.700Z,77.45
2022-10-19T07:30:12.694Z,76.64
2022-10-19T07:31:12.658Z,76.78
2022-10-19T07:32:12.657Z,77.09
2022-10-19T07:33:12.683Z,77.19
2022-10-19T07:34:12.646Z,77.43
2022-10-19T07:35:12.626Z,77.22
2022-10-19T07:36:12.667Z,77.22
2022-10-19T07:37:12.597Z,77.53
2022-10-19T07:38:12.591Z,77.94
2022-10-19T07:39:12.607Z,77.83
2022-10-19T07:40:12.593Z,77.59
2022-10-19T07:41:12.584Z,75.90
2022-10-19T07:42:12.641Z,75.73
2022-10-19T07:43:12.540Z,76.14
2022-10-19T07:44:15.542Z,76.14
2022-10-19T07:45:12.528Z,76.24
2022-10-19T07:46:12.514Z,76.58
2022-10-19T07:47:12.491Z,76.48
2022-10-19T07:48:12.486Z,74.24
2022-10-19T07:49:12.509Z,72.89
2022-10-19T07:50:12.462Z,74.24
2022-10-19T07:51:12.473Z,75.19
2022-10-19T07:52:12.450Z,75.93
2022-10-19T07:53:12.474Z,76.14
2022-10-19T07:54:12.463Z,76.98
2022-10-19T07:55:12.506Z,77.59
2022-10-19T07:56:12.465Z,77.73
2022-10-19T07:57:12.415Z,78.10
2022-10-19T07:58:12.425Z,77.49
2022-10-19T07:59:12.393Z,77.39
2022-10-19T08:00:12.357Z,77.29
2022-10-19T08:01:12.375Z,77.09
2022-10-19T08:02:12.474Z,76.88
2022-10-19T08:03:57.090Z,76.88
2022-10-19T08:04:59.430Z,77.02
2022-10-19T08:05:12.834Z,77.43
2022-10-19T08:06:12.344Z,78.24
2022-10-19T08:07:12.294Z,78.14
2022-10-19T08:08:12.320Z,78.08
2022-10-19T08:09:27.785Z,78.48
2022-10-19T08:10:12.301Z,78.38
2022-10-19T08:11:12.280Z,78.38
2022-10-19T08:12:15.068Z,78.58
2022-10-19T08:13:12.280Z,79.29
2022-10-19T08:14:12.261Z,78.89
2022-10-19T08:15:12.224Z,78.92
2022-10-19T08:16:12.234Z,78.99
2022-10-19T08:17:12.212Z,79.09
2022-10-19T08:18:12.221Z,78.99
2022-10-19T08:19:12.203Z,78.17
2022-10-19T08:20:12.237Z,78.75
2022-10-19T08:21:12.150Z,79.16
2022-10-19T08:22:12.155Z,79.16
2022-10-19T08:23:12.251Z,79.97
2022-10-19T08:24:12.263Z,79.86
2022-10-19T08:25:12.129Z,79.86
2022-10-19T08:26:12.128Z,80.07
2022-10-19T08:27:12.098Z,79.77
2022-10-19T08:28:12.145Z,79.86
2022-10-19T08:29:12.097Z,79.46
2022-10-19T08:30:12.060Z,79.25
2022-10-19T08:31:12.090Z,79.36
2022-10-19T08:32:12.091Z,78.85
2022-10-19T08:33:12.087Z,78.64
2022-10-19T08:34:12.085Z,78.34
2022-10-19T08:35:12.039Z,79.05
2022-10-19T08:36:12.029Z,79.05
2022-10-19T08:37:25.836Z,79.25
2022-10-19T08:38:12.060Z,79.46
2022-10-19T08:39:12.083Z,79.46
2022-10-19T08:40:11.951Z,79.05
2022-10-19T08:41:11.971Z,78.75
2022-10-19T08:42:11.940Z,79.05
2022-10-19T08:43:11.928Z,79.46
2022-10-19T08:44:11.975Z,79.66
2022-10-19T08:45:11.925Z,79.66
2022-10-19T08:46:11.904Z,79.16
2022-10-19T08:47:12.545Z,79.25
2022-10-19T08:48:11.913Z,78.95
2022-10-19T08:49:11.924Z,79.16
2022-10-19T08:50:11.846Z,78.85
2022-10-19T08:51:11.835Z,78.61
2022-10-19T08:52:11.827Z,78.20
2022-10-19T08:53:11.842Z,77.80
2022-10-19T08:54:11.858Z,78.20
2022-10-19T08:55:15.079Z,78.61
2022-10-19T08:56:12.478Z,78.81
2022-10-19T08:57:11.800Z,77.39
2022-10-19T08:58:11.773Z,77.56
2022-10-19T08:59:11.824Z,77.25
2022-10-19T09:00:11.761Z,77.36
2022-10-19T09:01:11.734Z,76.85
2022-10-19T09:02:11.833Z,76.24
2022-10-19T09:03:11.811Z,75.79
2022-10-19T09:04:11.700Z,75.59
2022-10-19T09:05:11.684Z,76.00
2022-10-19T09:06:11.673Z,76.20
2022-10-19T09:07:11.662Z,76.10
2022-10-19T09:08:16.719Z,76.06
2022-10-19T09:09:11.647Z,75.12
2022-10-19T09:10:11.626Z,74.81
2022-10-19T09:11:11.622Z,75.22
2022-10-19T09:12:11.623Z,74.88
2022-10-19T09:13:11.595Z,74.00
2022-10-19T09:14:11.589Z,73.90
2022-10-19T09:15:11.586Z,73.90
2022-10-19T09:16:11.560Z,74.24
2022-10-19T09:17:11.554Z,74.38
2022-10-19T09:18:11.538Z,75.39
2022-10-19T09:19:11.567Z,74.78
2022-10-19T09:20:11.549Z,74.98
2022-10-19T09:21:11.519Z,74.85
2022-10-19T09:22:11.559Z,73.97
2022-10-19T09:23:13.418Z,73.12
2022-10-19T09:24:11.490Z,72.89
2022-10-19T09:25:11.474Z,72.68
2022-10-19T09:26:11.461Z,72.08
2022-10-19T09:27:11.449Z,71.67
2022-10-19T09:28:17.470Z,72.41
2022-10-19T09:29:14.139Z,72.61
2022-10-19T09:30:11.411Z,72.72
2022-10-19T09:31:11.411Z,73.26
2022-10-19T09:32:11.395Z,73.06
2022-10-19T09:33:15.229Z,73.12
2022-10-19T09:34:11.371Z,73.63
2022-10-19T09:35:11.382Z,73.43
2022-10-19T09:36:22.281Z,72.58
2022-10-19T09:37:15.983Z,72.89
2022-10-19T09:38:11.394Z,72.58
2022-10-19T09:39:11.347Z,72.38
2022-10-19T09:40:11.317Z,72.08
2022-10-19T09:41:11.324Z,72.17
2022-10-19T09:42:11.284Z,71.26
2022-10-19T09:43:11.289Z,71.47
2022-10-19T09:44:11.318Z,71.88
2022-10-19T09:45:11.268Z,70.93
2022-10-19T09:46:19.446Z,70.01
2022-10-19T09:47:13.651Z,69.34
2022-10-19T09:48:13.101Z,69.20
2022-10-19T09:49:11.219Z,69.03
2022-10-19T09:50:11.199Z,70.56
2022-10-19T09:51:11.202Z,70.08
2022-10-19T09:52:11.198Z,70.32
2022-10-19T09:53:11.193Z,69.27
2022-10-19T09:54:11.160Z,68.16
2022-10-19T09:55:11.156Z,67.65
2022-10-19T09:56:11.137Z,67.76
2022-10-19T09:57:11.141Z,68.23
2022-10-19T09:58:11.118Z,66.71
2022-10-19T09:59:11.121Z,65.77
2022-10-19T10:00:11.096Z,67.39
2022-10-19T10:01:11.103Z,66.07
2022-10-19T10:02:11.087Z,66.14
2022-10-19T10:03:11.069Z,66.85
2022-10-19T10:04:11.055Z,65.13
2022-10-19T10:05:11.056Z,65.06
2022-10-19T10:06:11.037Z,64.86
2022-10-19T10:07:11.037Z,66.27
2022-10-19T10:08:11.015Z,66.00
2022-10-19T10:09:11.061Z,65.70
2022-10-19T10:10:10.993Z,67.22
2022-10-19T10:11:11.028Z,67.45
2022-10-19T10:12:10.978Z,66.54
2022-10-19T10:13:10.975Z,67.85
2022-10-19T10:14:10.949Z,65.83
2022-10-19T10:15:10.953Z,66.24
2022-10-19T10:16:10.930Z,65.02
2022-10-19T10:17:10.931Z,64.24
2022-10-19T10:18:10.905Z,65.05
2022-10-19T10:19:10.910Z,65.15
2022-10-19T10:20:10.886Z,64.85
2022-10-19T10:21:10.890Z,65.05
2022-10-19T10:22:10.872Z,66.06
2022-10-19T10:23:10.861Z,66.30
2022-10-19T10:24:10.887Z,65.39
2022-10-19T10:25:10.840Z,65.89
2022-10-19T10:26:10.823Z,65.99
2022-10-19T10:27:10.822Z,64.44
2022-10-19T10:28:10.818Z,65.45
2022-10-19T10:29:10.799Z,63.12
2022-10-19T10:30:10.779Z,63.32
2022-10-19T10:31:10.782Z,63.23
2022-10-19T10:32:10.766Z,63.12
2022-10-19T10:33:26.373Z,62.31
2022-10-19T10:34:22.675Z,62.92
2022-10-19T10:35:10.743Z,61.20
2022-10-19T10:36:10.728Z,61.51
2022-10-19T10:37:10.756Z,60.39
2022-10-19T10:38:10.699Z,60.28
2022-10-19T10:39:10.703Z,59.07
2022-10-19T10:40:10.690Z,59.48
2022-10-19T10:41:10.670Z,59.88
2022-10-19T10:42:10.673Z,59.17
2022-10-19T10:43:10.649Z,58.97
2022-10-19T10:44:10.805Z,59.78
2022-10-19T10:45:10.629Z,59.38
2022-10-19T10:46:10.616Z,58.97
2022-10-19T10:47:10.626Z,59.07
2022-10-19T10:48:10.625Z,59.17
2022-10-19T10:49:10.591Z,59.65
2022-10-19T10:50:10.581Z,59.55
2022-10-19T10:51:10.586Z,59.75
2022-10-19T10:52:10.560Z,59.92
2022-10-19T10:53:10.550Z,59.42
2022-10-19T10:54:10.543Z,60.13
2022-10-19T10:55:10.524Z,59.32
2022-10-19T10:56:10.510Z,58.92
2022-10-19T10:57:10.572Z,58.05
2022-10-19T10:58:10.494Z,58.15
2022-10-19T10:59:10.535Z,59.06
2022-10-19T11:00:10.475Z,60.10
2022-10-19T11:01:10.460Z,58.23
2022-10-19T11:02:10.602Z,57.95
2022-10-19T11:03:10.462Z,57.65
2022-10-19T11:04:10.427Z,58.05
2022-10-19T11:05:10.419Z,57.87
2022-10-19T11:06:10.409Z,58.11
2022-10-19T11:07:10.417Z,58.84
2022-10-19T11:08:10.409Z,58.44
2022-10-19T11:09:10.496Z,58.64
2022-10-19T11:10:10.363Z,58.44
2022-10-19T11:11:10.378Z,57.93
2022-10-19T11:12:11.272Z,57.53
2022-10-19T11:13:10.347Z,57.15
2022-10-19T11:14:10.317Z,58.67
2022-10-19T11:15:10.314Z,59.27
2022-10-19T11:16:10.302Z,59.07
2022-10-19T11:17:10.301Z,59.75
2022-10-19T11:18:10.276Z,59.95
2022-10-19T11:19:10.319Z,58.00
2022-10-19T11:20:10.260Z,58.92
2022-10-19T11:21:10.259Z,58.28
2022-10-19T11:22:10.255Z,58.15
2022-10-19T11:23:10.236Z,57.17
2022-10-19T11:24:10.218Z,57.80
2022-10-19T11:25:10.210Z,58.81
2022-10-19T11:26:10.195Z,58.41
2022-10-19T11:27:10.223Z,58.71
2022-10-19T11:28:10.179Z,59.72
2022-10-19T11:29:10.168Z,59.42
2022-10-19T11:30:10.153Z,58.92
2022-10-19T11:31:10.149Z,59.72
2022-10-19T11:32:10.139Z,59.22
2022-10-19T11:33:10.132Z,57.80
2022-10-19T11:34:10.110Z,57.27
2022-10-19T11:35:10.107Z,57.90
2022-10-19T11:36:10.091Z,57.57
2022-10-19T11:37:10.096Z,57.80
2022-10-19T11:38:29.873Z,58.11
2022-10-19T11:39:10.066Z,58.51
2022-10-19T11:40:10.052Z,58.51
2022-10-19T11:41:17.930Z,58.31
2022-10-19T11:42:10.040Z,59.01
2022-10-19T11:43:10.033Z,58.81
2022-10-19T11:44:10.011Z,59.29
2022-10-19T11:45:10.009Z,60.91
2022-10-19T11:46:09.988Z,59.70
2022-10-19T11:47:09.988Z,60.20
2022-10-19T11:48:09.971Z,59.39
2022-10-19T11:49:09.957Z,58.99
2022-10-19T11:51:21.037Z,60.10
2022-10-19T11:52:09.944Z,59.39
2022-10-19T11:53:09.925Z,60.30
2022-10-19T11:54:14.469Z,60.00
2022-10-19T11:55:09.902Z,60.00
2022-10-19T11:56:09.885Z,61.52
2022-10-19T11:57:11.626Z,60.43
2022-10-19T11:58:09.884Z,59.92
2022-10-19T11:59:09.863Z,62.26
2022-10-19T12:00:15.314Z,60.84
2022-10-19T12:01:09.849Z,61.65
2022-10-19T12:02:09.925Z,60.63
2022-10-19T12:03:09.815Z,60.97
2022-10-19T12:04:09.796Z,62.89
2022-10-19T12:05:09.795Z,62.08
2022-10-19T12:06:09.779Z,62.69
2022-10-19T12:07:09.813Z,61.88
2022-10-19T12:08:09.816Z,62.08
2022-10-19T12:09:09.818Z,61.47
2022-10-19T12:10:09.742Z,61.37
2022-10-19T12:11:09.738Z,60.68
2022-10-19T12:12:09.727Z,58.91
2022-10-19T12:13:09.717Z,59.38
2022-10-19T12:14:09.825Z,56.70
2022-10-19T12:15:09.687Z,56.42
2022-10-19T12:16:09.678Z,54.18
2022-10-19T12:17:09.740Z,54.48
2022-10-19T12:18:09.660Z,55.24
2022-10-19T12:19:09.655Z,54.13
2022-10-19T12:20:09.649Z,56.07
2022-10-19T12:21:09.629Z,55.06
2022-10-19T12:22:09.608Z,54.79
2022-10-19T12:23:09.616Z,55.69
2022-10-19T12:24:09.587Z,54.23
2022-10-19T12:25:09.581Z,53.80
2022-10-19T12:26:09.617Z,53.96
2022-10-19T12:27:09.561Z,54.89
2022-10-19T12:28:09.555Z,56.23
2022-10-19T12:29:09.543Z,58.07
2022-10-19T12:30:09.583Z,57.16
2022-10-19T12:31:09.534Z,57.49
2022-10-19T12:32:09.523Z,57.79
2022-10-19T12:33:09.565Z,57.89
2022-10-19T12:34:09.494Z,58.00
2022-10-19T12:35:09.552Z,58.40
2022-10-19T12:36:09.471Z,58.50
2022-10-19T12:37:09.468Z,59.81
2022-10-19T12:38:09.452Z,58.91
2022-10-19T12:39:09.443Z,59.18
2022-10-19T12:40:09.478Z,57.43
2022-10-19T12:41:09.428Z,56.90
2022-10-19T12:42:09.438Z,54.61
2022-10-19T12:43:09.399Z,55.11
2022-10-19T12:44:09.381Z,53.92
2022-10-19T12:45:09.381Z,54.56
2022-10-19T12:46:09.367Z,55.36
2022-10-19T12:47:09.372Z,53.42
2022-10-19T12:48:09.355Z,52.47
2022-10-19T12:49:09.335Z,51.64
2022-10-19T12:50:09.497Z,51.01
2022-10-19T12:51:09.318Z,52.42
2022-10-19T12:52:09.331Z,50.81
2022-10-19T12:53:09.294Z,51.31